createdAt,value
2023-01-27T00:00:15.799Z,40.83
2023-01-27T00:02:43.577Z,36.15
2023-01-27T00:05:12.415Z,41.17
2023-01-27T00:07:39.540Z,37.20
2023-01-27T00:10:06.863Z,40.97
2023-01-27T00:12:52.296Z,33.83
2023-01-27T00:15:19.090Z,36.05
2023-01-27T00:17:45.704Z,39.28
2023-01-27T00:20:12.814Z,37.67
2023-01-27T00:22:58.226Z,33.75
2023-01-27T00:25:24.863Z,32.05
2023-01-27T00:27:52.619Z,29.23
2023-01-27T00:30:19.380Z,32.80
2023-01-27T00:33:07.456Z,40.10
2023-01-27T00:38:01.327Z,39.33
2023-01-27T00:40:27.981Z,40.42
2023-01-27T00:42:54.706Z,37.03
2023-01-27T00:45:39.912Z,32.03
2023-01-27T00:50:33.129Z,36.10
2023-01-27T00:53:02.239Z,37.70
2023-01-27T00:55:28.880Z,33.45
2023-01-27T00:57:55.599Z,33.58
2023-01-27T01:00:22.409Z,31.98
2023-01-27T01:02:49.086Z,31.63
2023-01-27T01:05:15.780Z,29.67
2023-01-27T01:07:42.401Z,31.73
2023-01-27T01:10:10.153Z,27.77
2023-01-27T01:12:36.853Z,28.25
2023-01-27T01:15:03.734Z,31.60
2023-01-27T01:17:30.431Z,26.05
2023-01-27T01:19:57.114Z,32.90
2023-01-27T01:22:23.857Z,24.75
2023-01-27T01:24:50.504Z,25.73
2023-01-27T01:27:17.292Z,23.42
2023-01-27T01:29:44.106Z,20.77
2023-01-27T01:32:10.951Z,23.92
2023-01-27T01:34:38.271Z,22.05
2023-01-27T01:37:05.165Z,22.92
2023-01-27T01:39:32.258Z,24.15
2023-01-27T01:41:59.083Z,21.13
2023-01-27T01:44:31.535Z,24.30
2023-01-27T01:46:58.668Z,21.98
2023-01-27T01:49:32.408Z,18.50
2023-01-27T01:52:03.096Z,19.05
2023-01-27T01:54:36.790Z,19.13
2023-01-27T01:57:16.416Z,19.52
2023-01-27T02:03:30.826Z,17.77
2023-01-27T02:05:57.703Z,19.55
2023-01-27T02:08:35.708Z,18.17
2023-01-27T02:11:02.446Z,17.65
2023-01-27T02:13:29.096Z,21.02
2023-01-27T02:15:55.902Z,20.25
2023-01-27T02:18:22.948Z,17.33
2023-01-27T02:20:51.921Z,20.77
2023-01-27T02:23:22.561Z,16.55
2023-01-27T02:26:11.542Z,21.52
2023-01-27T02:28:38.285Z,16.58
2023-01-27T02:31:05.187Z,15.77
2023-01-27T02:33:32.057Z,17.40
2023-01-27T02:36:12.572Z,17.65
2023-01-27T02:38:51.604Z,14.70
2023-01-27T02:41:29.096Z,18.85
2023-01-27T02:43:56.593Z,15.93
2023-01-27T02:46:23.339Z,16.95
2023-01-27T02:48:50.036Z,20.98
2023-01-27T02:51:17.555Z,19.88
2023-01-27T02:53:44.376Z,19.45
2023-01-27T02:56:11.411Z,16.85
2023-01-27T02:58:38.203Z,18.48
2023-01-27T03:01:05.030Z,18.00
2023-01-27T03:03:31.776Z,15.93
2023-01-27T03:05:58.432Z,18.15
2023-01-27T03:08:25.229Z,20.98
2023-01-27T03:10:53.067Z,21.08
2023-01-27T03:13:26.018Z,21.65
2023-01-27T03:16:13.503Z,22.50
2023-01-27T03:18:41.229Z,22.30
2023-01-27T03:21:08.029Z,22.77
2023-01-27T03:23:34.903Z,19.05
2023-01-27T03:26:02.845Z,23.50
2023-01-27T03:28:29.497Z,21.52
2023-01-27T03:31:19.403Z,24.80
2023-01-27T03:33:47.690Z,21.77
2023-01-27T03:36:33.816Z,21.77
2023-01-27T03:39:19.029Z,21.35
2023-01-27T03:44:49.796Z,23.15
2023-01-27T03:47:16.429Z,23.00
2023-01-27T03:49:43.112Z,22.88
2023-01-27T03:52:09.776Z,25.02
2023-01-27T03:54:36.528Z,27.77
2023-01-27T03:57:06.111Z,22.60
2023-01-27T03:59:33.112Z,25.17
2023-01-27T04:02:20.670Z,25.45
2023-01-27T04:05:06.028Z,28.00
2023-01-27T04:07:36.046Z,25.55
2023-01-27T04:10:04.032Z,25.52
2023-01-27T04:12:30.738Z,23.38
2023-01-27T04:14:57.842Z,25.60
2023-01-27T04:17:24.499Z,26.23
2023-01-27T04:19:51.130Z,27.13
2023-01-27T04:22:17.783Z,30.50
2023-01-27T04:24:44.480Z,30.20
2023-01-27T04:27:15.274Z,25.20
2023-01-27T04:29:42.651Z,30.90
2023-01-27T04:32:11.858Z,29.13
2023-01-27T04:34:39.409Z,32.20
2023-01-27T04:37:07.957Z,28.70
2023-01-27T04:39:36.048Z,28.10
2023-01-27T04:42:02.845Z,31.42
2023-01-27T04:44:29.587Z,30.98
2023-01-27T04:46:56.435Z,30.05
2023-01-27T04:49:23.361Z,27.98
2023-01-27T04:51:50.149Z,26.42
2023-01-27T04:54:16.870Z,33.03
2023-01-27T04:56:55.585Z,31.65
2023-01-27T04:59:22.385Z,31.75
2023-01-27T05:01:49.331Z,36.58
2023-01-27T05:04:15.996Z,29.05
2023-01-27T05:06:42.716Z,36.25
2023-01-27T05:09:09.413Z,32.95
2023-01-27T05:11:36.214Z,38.03
2023-01-27T05:14:02.895Z,33.97
2023-01-27T05:16:29.785Z,35.70
2023-01-27T05:18:56.727Z,41.67
2023-01-27T05:21:25.533Z,45.03
2023-01-27T05:23:52.328Z,33.78
2023-01-27T05:26:29.509Z,35.78
2023-01-27T05:28:59.547Z,30.20
2023-01-27T05:31:31.968Z,37.63
2023-01-27T05:34:00.279Z,34.08
2023-01-27T05:36:27.739Z,33.30
2023-01-27T05:38:55.601Z,32.00
2023-01-27T05:41:23.029Z,30.95
2023-01-27T05:43:54.415Z,32.80
2023-01-27T05:46:26.416Z,34.92
2023-01-27T05:48:54.878Z,41.55
2023-01-27T05:51:23.105Z,38.47
2023-01-27T05:53:50.213Z,33.40
2023-01-27T05:56:18.818Z,36.90
2023-01-27T05:58:45.867Z,28.20
2023-01-27T06:01:15.149Z,37.67
2023-01-27T06:03:42.066Z,33.78
2023-01-27T06:06:10.142Z,32.20
2023-01-27T06:08:37.360Z,33.72
2023-01-27T06:11:04.452Z,31.90
2023-01-27T06:13:31.448Z,32.20
2023-01-27T06:15:58.270Z,46.58
2023-01-27T06:18:24.953Z,35.30
2023-01-27T06:20:51.724Z,31.70
2023-01-27T06:23:18.481Z,37.25
2023-01-27T06:25:47.255Z,36.13
2023-01-27T06:28:27.805Z,39.45
2023-01-27T06:30:55.229Z,32.47
2023-01-27T06:33:22.065Z,35.10
2023-01-27T06:35:48.820Z,48.30
2023-01-27T06:38:15.603Z,29.60
2023-01-27T06:40:43.215Z,31.52
2023-01-27T06:43:16.347Z,54.47
2023-01-27T06:45:43.033Z,41.90
2023-01-27T06:48:09.725Z,37.20
2023-01-27T06:50:37.259Z,27.17
2023-01-27T06:53:06.051Z,29.10
2023-01-27T06:55:33.175Z,34.85
2023-01-27T06:58:01.690Z,36.55
2023-01-27T07:00:28.522Z,36.88
2023-01-27T07:02:56.391Z,37.80
2023-01-27T07:05:23.339Z,32.90
2023-01-27T07:07:50.240Z,31.23
2023-01-27T07:10:17.340Z,37.88
2023-01-27T07:12:44.048Z,38.13
2023-01-27T07:15:11.454Z,37.35
2023-01-27T07:17:38.694Z,31.20
2023-01-27T07:20:07.879Z,32.30
2023-01-27T07:22:34.660Z,34.47
2023-01-27T07:25:02.289Z,35.50
2023-01-27T07:27:29.504Z,29.05
2023-01-27T07:29:56.179Z,31.13
2023-01-27T07:32:22.853Z,31.17
2023-01-27T07:34:49.506Z,32.97
2023-01-27T07:37:16.913Z,32.13
2023-01-27T07:39:43.703Z,32.30
2023-01-27T07:42:10.429Z,30.65
2023-01-27T07:44:37.182Z,26.73
2023-01-27T07:47:03.939Z,27.88
2023-01-27T07:49:30.568Z,35.15
2023-01-27T07:51:57.344Z,31.70
2023-01-27T07:54:25.151Z,21.83
2023-01-27T07:56:52.369Z,21.67
2023-01-27T07:59:19.059Z,26.58
2023-01-27T08:01:48.137Z,26.13
2023-01-27T08:04:15.243Z,22.08
2023-01-27T08:06:42.135Z,23.67
2023-01-27T08:09:08.903Z,26.02
2023-01-27T08:11:35.816Z,24.80
2023-01-27T08:14:02.637Z,25.63
2023-01-27T08:16:29.397Z,26.05
2023-01-27T08:18:56.630Z,22.33
2023-01-27T08:21:25.172Z,23.83
2023-01-27T08:23:53.785Z,25.27
2023-01-27T08:26:20.601Z,25.73
2023-01-27T08:28:47.352Z,27.77
2023-01-27T08:31:16.277Z,25.13
2023-01-27T08:33:44.700Z,27.98
2023-01-27T08:36:14.166Z,25.52
2023-01-27T08:38:42.503Z,27.30
2023-01-27T08:41:24.422Z,24.73
2023-01-27T08:43:51.278Z,26.92
2023-01-27T08:46:18.087Z,31.70
2023-01-27T08:48:44.932Z,26.50
2023-01-27T08:51:13.755Z,23.70
2023-01-27T08:53:40.623Z,27.13
2023-01-27T08:56:11.312Z,24.83
2023-01-27T08:58:38.046Z,25.15
2023-01-27T09:01:06.324Z,25.20
2023-01-27T09:03:34.086Z,28.00
2023-01-27T09:06:01.346Z,28.67
2023-01-27T09:08:28.296Z,26.02
2023-01-27T09:10:55.265Z,27.25
2023-01-27T09:13:24.743Z,21.85
2023-01-27T09:15:52.827Z,30.42
2023-01-27T09:18:20.129Z,25.75
2023-01-27T09:20:46.921Z,25.30
2023-01-27T09:23:13.613Z,25.45
2023-01-27T09:25:40.557Z,25.35
2023-01-27T09:28:12.184Z,25.90
2023-01-27T09:30:40.847Z,29.95
2023-01-27T09:33:08.955Z,25.48
2023-01-27T09:35:42.587Z,22.77
2023-01-27T09:38:09.507Z,23.45
2023-01-27T09:40:54.630Z,25.27
2023-01-27T09:46:24.992Z,26.65
2023-01-27T09:49:24.686Z,24.88
2023-01-27T09:52:46.467Z,27.70
2023-01-27T09:55:52.495Z,20.55
2023-01-27T09:58:39.251Z,20.43
2023-01-27T10:01:18.292Z,20.88
2023-01-27T10:03:45.379Z,22.02
2023-01-27T10:06:39.838Z,24.70
2023-01-27T10:09:21.830Z,26.63
2023-01-27T10:11:54.760Z,21.98
2023-01-27T10:14:42.907Z,21.55
2023-01-27T10:17:41.782Z,25.95
2023-01-27T10:20:40.223Z,17.38
2023-01-27T10:23:29.475Z,24.38
2023-01-27T10:26:27.505Z,20.00
2023-01-27T10:29:07.907Z,22.75
2023-01-27T10:31:49.740Z,20.55
2023-01-27T10:34:35.181Z,23.42
2023-01-27T10:37:20.346Z,21.63
2023-01-27T10:42:40.301Z,24.23
2023-01-27T10:45:13.846Z,15.80
2023-01-27T10:48:08.344Z,20.83
2023-01-27T10:51:10.445Z,18.25
2023-01-27T10:53:42.870Z,17.20
2023-01-27T10:56:25.453Z,20.13
2023-01-27T10:59:08.487Z,19.73
2023-01-27T11:01:44.142Z,17.98
2023-01-27T11:04:34.942Z,15.15
2023-01-27T11:07:01.740Z,17.17
2023-01-27T11:09:37.401Z,15.38
2023-01-27T11:12:12.253Z,15.25
2023-01-27T11:17:25.548Z,15.55
2023-01-27T11:20:13.797Z,15.15
2023-01-27T11:22:56.656Z,17.05
2023-01-27T11:25:34.586Z,17.90
2023-01-27T11:28:25.467Z,15.55
2023-01-27T11:31:08.884Z,16.52
2023-01-27T11:33:58.617Z,17.77
2023-01-27T11:36:26.096Z,15.95
2023-01-27T11:38:54.201Z,14.68
2023-01-27T11:41:21.390Z,19.70
2023-01-27T11:43:48.185Z,16.38
2023-01-27T11:46:21.774Z,18.05
2023-01-27T11:48:51.109Z,17.35
2023-01-27T11:51:23.664Z,19.60
2023-01-27T11:54:06.803Z,16.23
2023-01-27T11:56:35.275Z,16.77
2023-01-27T11:59:15.387Z,17.90
2023-01-27T12:02:29.620Z,21.48
2023-01-27T12:05:07.529Z,19.00
2023-01-27T12:07:41.750Z,20.92
2023-01-27T12:10:25.452Z,20.70
2023-01-27T12:12:53.295Z,18.42
2023-01-27T12:15:20.323Z,19.63
2023-01-27T12:17:50.443Z,21.75
2023-01-27T12:20:39.475Z,19.90
2023-01-27T12:23:24.715Z,24.00
2023-01-27T12:26:03.372Z,26.27
2023-01-27T12:28:33.091Z,20.35
2023-01-27T12:31:11.628Z,21.08
2023-01-27T12:33:41.379Z,23.30
2023-01-27T12:36:22.637Z,21.67
2023-01-27T12:38:54.591Z,23.50
2023-01-27T12:41:27.331Z,21.15
2023-01-27T12:44:07.637Z,23.60
2023-01-27T12:46:34.386Z,24.52
2023-01-27T12:49:09.162Z,26.40
2023-01-27T12:51:44.969Z,21.25
2023-01-27T12:54:32.431Z,24.13
2023-01-27T12:57:09.939Z,23.92
2023-01-27T12:59:54.676Z,18.05
2023-01-27T13:02:26.661Z,24.15
2023-01-27T13:05:00.589Z,24.75
2023-01-27T13:07:30.093Z,20.23
2023-01-27T13:10:03.016Z,21.60
2023-01-27T13:12:35.764Z,23.00
2023-01-27T13:15:16.331Z,22.60
2023-01-27T13:17:54.453Z,21.20
2023-01-27T13:20:22.353Z,25.02
2023-01-27T13:22:56.395Z,18.42
2023-01-27T13:25:28.450Z,24.23
2023-01-27T13:27:58.940Z,21.17
2023-01-27T13:30:41.017Z,19.95
2023-01-27T13:33:43.531Z,17.98
2023-01-27T13:36:29.179Z,17.42
2023-01-27T13:39:01.605Z,18.90
2023-01-27T13:41:45.865Z,24.10
2023-01-27T13:44:39.841Z,21.17
2023-01-27T13:47:14.700Z,23.15
2023-01-27T13:49:45.664Z,18.80
2023-01-27T13:52:13.151Z,17.67
2023-01-27T13:54:40.093Z,16.83
2023-01-27T13:57:37.028Z,18.38
2023-01-27T14:00:12.812Z,18.13
2023-01-27T14:02:58.213Z,15.77
2023-01-27T14:05:31.251Z,20.05
2023-01-27T14:08:35.732Z,19.40
2023-01-27T14:11:35.096Z,15.88
2023-01-27T14:14:31.549Z,16.75
2023-01-27T14:17:15.843Z,15.48
2023-01-27T14:20:07.352Z,17.52
2023-01-27T14:22:50.227Z,20.20
2023-01-27T14:26:21.739Z,17.80
2023-01-27T14:29:20.899Z,21.45
2023-01-27T14:32:06.349Z,19.80
2023-01-27T14:34:56.814Z,18.10
2023-01-27T14:37:29.945Z,17.48
2023-01-27T14:40:26.453Z,20.00
2023-01-27T14:43:05.267Z,21.20
2023-01-27T14:45:37.564Z,14.95
2023-01-27T14:48:08.320Z,16.10
2023-01-27T14:50:48.513Z,13.65
2023-01-27T14:53:25.211Z,14.52
2023-01-27T14:56:23.390Z,14.77
2023-01-27T14:59:12.701Z,17.88
2023-01-27T15:01:43.873Z,18.10
2023-01-27T15:04:20.249Z,15.13
2023-01-27T15:07:03.759Z,13.38
2023-01-27T15:09:50.804Z,18.13
2023-01-27T15:12:48.205Z,16.35
2023-01-27T15:15:32.033Z,14.85
2023-01-27T15:18:17.501Z,16.15
2023-01-27T15:21:19.338Z,17.73
2023-01-27T15:24:07.542Z,15.30
2023-01-27T15:26:36.175Z,12.93
2023-01-27T15:29:03.678Z,19.38
2023-01-27T15:31:31.414Z,15.43
2023-01-27T15:34:04.302Z,16.17
2023-01-27T15:36:36.499Z,15.65
2023-01-27T15:39:09.284Z,15.10
2023-01-27T15:41:57.750Z,20.25
2023-01-27T15:44:24.372Z,18.13
2023-01-27T15:46:52.952Z,15.63
2023-01-27T15:49:25.283Z,16.08
2023-01-27T15:51:54.455Z,17.42
2023-01-27T15:54:32.435Z,16.42
2023-01-27T15:57:03.464Z,17.48
2023-01-27T15:59:44.233Z,16.95
2023-01-27T16:02:24.741Z,19.90
2023-01-27T16:05:18.522Z,19.30
2023-01-27T16:07:49.238Z,16.00
2023-01-27T16:10:19.942Z,19.42
2023-01-27T16:12:48.641Z,19.77
2023-01-27T16:15:15.719Z,14.77
2023-01-27T16:17:59.628Z,18.33
2023-01-27T16:20:51.822Z,16.15
2023-01-27T16:23:38.875Z,15.70
2023-01-27T16:26:30.564Z,16.25
2023-01-27T16:29:24.759Z,18.05
2023-01-27T16:32:00.241Z,17.15
2023-01-27T16:34:35.237Z,16.13
2023-01-27T16:40:06.187Z,17.20
2023-01-27T16:42:38.446Z,16.20
2023-01-27T16:45:19.110Z,21.23
2023-01-27T16:47:51.566Z,17.75
2023-01-27T16:50:39.216Z,19.73
2023-01-27T16:53:12.352Z,20.08
2023-01-27T16:55:40.089Z,18.00
2023-01-27T16:58:18.681Z,19.65
2023-01-27T17:00:46.666Z,20.30
2023-01-27T17:03:20.324Z,18.90
2023-01-27T17:05:52.290Z,22.25
2023-01-27T17:08:21.931Z,28.08
2023-01-27T17:10:55.927Z,17.92
2023-01-27T17:13:31.435Z,22.58
2023-01-27T17:15:59.462Z,21.70
2023-01-27T17:18:26.486Z,18.98
2023-01-27T17:20:53.281Z,21.15
2023-01-27T17:23:33.019Z,18.38
2023-01-27T17:26:07.750Z,18.00
2023-01-27T17:28:35.309Z,14.45
2023-01-27T17:31:07.914Z,18.30
2023-01-27T17:33:35.996Z,19.63
2023-01-27T17:36:12.461Z,17.33
2023-01-27T17:38:50.267Z,17.70
2023-01-27T17:41:37.614Z,18.85
2023-01-27T17:44:11.512Z,14.77
2023-01-27T17:46:38.516Z,18.10
2023-01-27T17:49:08.471Z,15.35
2023-01-27T17:51:42.075Z,17.65
2023-01-27T17:54:41.613Z,17.58
2023-01-27T17:57:27.873Z,14.68
2023-01-27T18:00:01.504Z,15.85
2023-01-27T18:02:50.590Z,16.45
2023-01-27T18:05:21.971Z,16.13
2023-01-27T18:07:48.944Z,14.98
2023-01-27T18:10:45.220Z,13.98
2023-01-27T18:13:13.061Z,16.40
2023-01-27T18:15:42.893Z,17.23
2023-01-27T18:18:21.025Z,12.93
2023-01-27T18:21:05.989Z,16.02
2023-01-27T18:23:48.922Z,14.93
2023-01-27T18:26:21.960Z,12.52
2023-01-27T18:29:22.797Z,15.38
2023-01-27T18:31:52.948Z,12.30
2023-01-27T18:34:31.187Z,15.77
2023-01-27T18:37:03.308Z,15.57
2023-01-27T18:39:35.859Z,15.25
2023-01-27T18:42:03.227Z,19.50
2023-01-27T18:44:37.141Z,13.55
2023-01-27T18:47:18.802Z,15.80
2023-01-27T18:49:51.611Z,13.75
2023-01-27T18:52:18.822Z,32.15
2023-01-27T18:54:45.701Z,27.33
2023-01-27T18:57:12.381Z,42.95
2023-01-27T18:59:39.112Z,16.35
2023-01-27T19:02:14.105Z,18.23
2023-01-27T19:04:40.829Z,15.48
2023-01-27T19:07:15.878Z,18.25
2023-01-27T19:09:44.105Z,14.18
2023-01-27T19:12:23.588Z,15.52
2023-01-27T19:14:50.344Z,15.55
2023-01-27T19:17:22.087Z,13.93
2023-01-27T19:19:48.895Z,16.75
2023-01-27T19:22:17.938Z,13.63
2023-01-27T19:24:45.587Z,12.40
2023-01-27T19:27:16.166Z,16.27
2023-01-27T19:29:43.166Z,13.93
2023-01-27T19:32:15.115Z,10.98
2023-01-27T19:34:41.901Z,11.23
2023-01-27T19:37:18.690Z,14.70
2023-01-27T19:39:46.335Z,10.93
2023-01-27T19:42:14.797Z,15.23
2023-01-27T19:44:42.685Z,11.77
2023-01-27T19:47:13.716Z,14.48
2023-01-27T19:49:40.828Z,13.13
2023-01-27T19:52:07.777Z,13.13
2023-01-27T19:54:35.007Z,17.63
2023-01-27T19:57:01.988Z,14.30
2023-01-27T19:59:28.690Z,12.10
2023-01-27T20:01:56.961Z,12.35
2023-01-27T20:04:23.802Z,11.80
2023-01-27T20:06:50.756Z,13.43
2023-01-27T20:09:17.536Z,13.25
2023-01-27T20:11:44.849Z,11.68
2023-01-27T20:14:19.290Z,11.90
2023-01-27T20:16:46.742Z,9.90
2023-01-27T20:19:15.100Z,11.95
2023-01-27T20:21:45.859Z,10.05
2023-01-27T20:24:15.980Z,13.02
2023-01-27T20:26:42.744Z,12.60
2023-01-27T20:29:09.491Z,11.60
2023-01-27T20:31:38.259Z,9.27
2023-01-27T20:34:04.989Z,12.63
2023-01-27T20:36:31.760Z,10.73
2023-01-27T20:38:58.440Z,11.23
2023-01-27T20:41:25.525Z,11.75
2023-01-27T20:43:56.595Z,12.48
2023-01-27T20:46:23.351Z,21.02
2023-01-27T20:48:50.060Z,13.93
2023-01-27T20:51:17.060Z,16.75
2023-01-27T20:53:47.725Z,13.27
2023-01-27T20:56:21.071Z,9.68
2023-01-27T20:58:48.407Z,12.80
2023-01-27T21:01:20.872Z,12.88
2023-01-27T21:03:48.150Z,15.43
2023-01-27T21:06:19.810Z,11.90
2023-01-27T21:08:49.727Z,13.25
2023-01-27T21:11:18.408Z,12.60
2023-01-27T21:13:45.726Z,14.60
2023-01-27T21:16:13.079Z,13.00
2023-01-27T21:18:39.891Z,13.20
2023-01-27T21:21:06.674Z,14.27
2023-01-27T21:23:34.383Z,12.35
2023-01-27T21:26:06.041Z,10.73
2023-01-27T21:28:33.907Z,15.88
2023-01-27T21:31:12.064Z,12.05
2023-01-27T21:33:39.378Z,11.63
2023-01-27T21:36:09.412Z,11.98
2023-01-27T21:38:37.079Z,13.23
2023-01-27T21:42:03.103Z,14.52
2023-01-27T21:44:48.700Z,18.33
2023-01-27T21:47:19.177Z,13.75
2023-01-27T21:50:02.746Z,12.93
2023-01-27T21:52:37.470Z,13.35
2023-01-27T21:55:06.489Z,12.55
2023-01-27T21:57:34.160Z,12.48
2023-01-27T22:00:00.896Z,12.10
2023-01-27T22:02:29.420Z,11.73
2023-01-27T22:04:56.203Z,13.38
2023-01-27T22:07:22.955Z,13.48
2023-01-27T22:09:49.693Z,10.82
2023-01-27T22:12:16.910Z,11.48
2023-01-27T22:14:44.195Z,12.85
2023-01-27T22:17:11.011Z,13.15
2023-01-27T22:19:39.144Z,12.05
2023-01-27T22:22:07.689Z,11.13
2023-01-27T22:24:34.415Z,11.27
2023-01-27T22:27:01.237Z,11.25
2023-01-27T22:29:27.964Z,12.50
2023-01-27T22:31:54.780Z,12.27
2023-01-27T22:34:21.489Z,13.77
2023-01-27T22:36:51.921Z,12.10
2023-01-27T22:39:19.166Z,11.70
2023-01-27T22:41:46.432Z,11.27
2023-01-27T22:44:14.071Z,12.27
2023-01-27T22:46:41.656Z,11.98
2023-01-27T22:49:09.267Z,14.15
2023-01-27T22:51:36.351Z,16.50
2023-01-27T22:54:03.233Z,12.30
2023-01-27T22:56:29.945Z,12.38
2023-01-27T22:58:56.650Z,12.50
2023-01-27T23:01:23.552Z,15.88
2023-01-27T23:03:50.294Z,13.77
2023-01-27T23:06:17.037Z,13.48
2023-01-27T23:08:43.709Z,12.27
2023-01-27T23:11:10.755Z,13.25
2023-01-27T23:13:37.700Z,12.50
2023-01-27T23:16:04.752Z,13.15
2023-01-27T23:18:32.729Z,14.63
2023-01-27T23:21:04.714Z,10.93
2023-01-27T23:23:31.391Z,12.68
2023-01-27T23:25:58.309Z,11.98
2023-01-27T23:28:25.125Z,12.88
2023-01-27T23:30:51.977Z,14.68
2023-01-27T23:33:20.096Z,10.18
2023-01-27T23:35:47.274Z,11.50
2023-01-27T23:38:26.587Z,10.27
2023-01-27T23:41:12.629Z,10.10
2023-01-27T23:43:39.509Z,12.23
2023-01-27T23:46:06.270Z,12.35
2023-01-27T23:48:32.941Z,10.88
2023-01-27T23:51:08.747Z,11.48
2023-01-27T23:53:35.487Z,15.15
2023-01-27T23:56:02.413Z,13.75
2023-01-27T23:58:29.084Z,12.25
